Vanderbilt, Texas
Current Conditions -  °F | °C
As of 3:15 AM on Saturday 01 Nov 2014 (Local Time) from KPKV Reporting Station
Clear Clear  
Wind Chill: 53°   Ceiling: Unl
Heat Index: 53°   Visibility: 10mi
Dew Point: 46°   Wind: 9mph
Humidity: 75%   Direction: 10°N
Pressure: 30.28"   Gusts: NA
Location:  28.82°N, 96.62°W
Report Text: KPKV 010815Z AUTO 01008KT 10SM CLR 12/08 A3028 RMK AO2 T01180075
Loading
Personal Weather Stations






























Interactive Weather Map
Tropical Storm Tracking
New forecast layout! Learn more

10-Day Weather Forecast

Advertisements
Track Severe Weather on mobile